Time;durP1;ratioP1;P1;durP2;ratioP2;P2;SDS_P1;SDS_P2;PMS_P1;PMS_P2;Temp;Humidity;BMP_temperature;BMP_pressure;BME280_temperature;BME280_humidity;BME280_pressure;Samples;Min_cycle;Max_cycle;Signal;HPM_P1;HPM_P2
2023/10/18 00:01:23;;;;;;;46.63;4.43;;;;;;;23.02;60.50;99609.94;7316814;19;129510;-37
2023/10/18 00:03:48;;;;;;;22.13;3.27;;;;;;;23.04;60.21;99607.97;7315129;19;130895;-37
2023/10/18 00:06:16;;;;;;;60.17;5.13;;;;;;;23.01;59.60;99608.28;7315717;19;130331;-37
2023/10/18 00:08:42;;;;;;;41.53;3.75;;;;;;;23.07;59.65;99611.13;7316133;19;129056;-35
2023/10/18 00:11:08;;;;;;;32.30;3.83;;;;;;;23.06;59.48;99603.41;7315730;19;128790;-36
2023/10/18 00:13:33;;;;;;;21.80;2.97;;;;;;;22.94;60.01;99584.44;7314357;19;131139;-37
2023/10/18 00:16:06;;;;;;;37.60;3.53;;;;;;;23.09;60.64;99609.19;7317180;19;131102;-37
2023/10/18 00:18:33;;;;;;;30.88;3.45;;;;;;;23.00;60.25;99596.16;7315651;19;128865;-36
2023/10/18 00:20:59;;;;;;;57.38;4.35;;;;;;;23.11;59.87;99603.78;7312313;19;129508;-37
2023/10/18 00:23:27;;;;;;;67.88;5.15;;;;;;;23.16;59.36;99612.03;7315016;19;130114;-36
2023/10/18 00:25:52;;;;;;;42.95;3.67;;;;;;;23.17;59.44;99608.47;7315810;19;129358;-36
2023/10/18 00:28:19;;;;;;;37.50;3.67;;;;;;;23.15;59.15;99608.59;7311885;19;129098;-37
2023/10/18 00:30:45;;;;;;;48.55;4.07;;;;;;;23.14;59.48;99593.00;7315032;19;130147;-34
2023/10/18 00:33:11;;;;;;;31.20;3.23;;;;;;;23.15;59.62;99589.44;7314908;19;129052;-34
2023/10/18 00:35:38;;;;;;;35.07;3.80;;;;;;;23.17;59.42;99588.28;7316261;19;130484;-36
2023/10/18 00:38:04;;;;;;;71.22;5.57;;;;;;;23.20;58.77;99595.03;7314537;19;129017;-35
2023/10/18 00:45:47;;;;;;;32.30;3.30;;;;;;;23.19;58.94;99582.88;7315531;19;129146;-37
2023/10/18 00:48:13;;;;;;;46.63;4.13;;;;;;;23.24;58.32;99583.25;7311878;19;129410;-36
2023/10/18 00:50:45;;;;;;;43.20;3.88;;;;;;;23.10;59.56;99565.44;7313135;19;128971;-37
2023/10/18 00:53:22;;;;;;;14.45;2.33;;;;;;;23.20;58.94;99574.88;7316285;19;129031;-36
2023/10/18 00:55:53;;;;;;;29.23;3.17;;;;;;;23.22;59.51;99577.38;7313508;19;130232;-36
2023/10/18 00:58:22;;;;;;;57.22;4.57;;;;;;;23.24;59.01;99572.78;7314545;19;129396;-37
2023/10/18 01:00:48;;;;;;;38.85;3.65;;;;;;;23.22;58.80;99570.31;7313567;19;129013;-35
2023/10/18 01:03:30;;;;;;;43.10;3.80;;;;;;;23.22;59.50;99575.53;7315184;19;128951;-37
2023/10/18 01:06:20;;;;;;;64.45;4.78;;;;;;;23.25;59.96;99570.00;7313410;19;130358;-36
2023/10/18 01:08:49;;;;;;;40.85;3.50;;;;;;;23.22;59.19;99564.25;7315151;19;129496;-37
2023/10/18 01:11:19;;;;;;;31.88;3.33;;;;;;;23.27;58.87;99571.69;7314724;19;128886;-36
2023/10/18 01:13:45;;;;;;;29.35;3.03;;;;;;;23.29;58.33;99567.94;7314810;19;131132;-37
2023/10/18 01:16:23;;;;;;;51.07;4.13;;;;;;;23.30;58.57;99571.38;7314162;19;131431;-39
2023/10/18 01:18:52;;;;;;;34.35;3.38;;;;;;;23.25;59.23;99563.94;7313454;19;129809;-38
2023/10/18 01:21:19;;;;;;;34.83;3.42;;;;;;;23.24;58.49;99562.28;7314714;19;129235;-38
2023/10/18 01:23:56;;;;;;;33.78;3.25;;;;;;;23.28;59.59;99573.31;7315302;19;129482;-38
2023/10/18 01:26:24;;;;;;;68.07;4.85;;;;;;;23.29;58.03;99569.75;7314297;19;130374;-36
2023/10/18 01:28:51;;;;;;;47.58;3.92;;;;;;;23.19;58.28;99548.78;7312893;19;129395;-38
2023/10/18 01:31:17;;;;;;;42.20;3.60;;;;;;;23.29;58.18;99572.38;7313593;19;129048;-38
2023/10/18 01:33:43;;;;;;;38.13;3.57;;;;;;;23.24;58.23;99564.91;7314760;19;129079;-38
2023/10/18 01:36:12;;;;;;;23.58;2.75;;;;;;;23.25;58.50;99563.94;7313873;19;130470;-38
2023/10/18 01:38:39;;;;;;;47.80;3.88;;;;;;;23.26;58.41;99562.97;7313208;19;129244;-37
2023/10/18 01:41:25;;;;;;;38.30;3.10;;;;;;;23.27;57.88;99556.75;7310309;19;129443;-37
2023/10/18 01:43:51;;;;;;;43.97;3.45;;;;;;;23.29;58.13;99554.81;7315107;19;130209;-38
2023/10/18 01:46:17;;;;;;;44.63;3.77;;;;;;;23.26;57.83;99560.34;7312960;19;131204;-36
2023/10/18 01:48:50;;;;;;;29.70;2.88;;;;;;;23.24;58.16;99550.00;7313468;19;128893;-37
2023/10/18 01:51:15;;;;;;;52.13;4.03;;;;;;;23.23;57.67;99542.28;7313310;19;130346;-37
2023/10/18 01:53:43;;;;;;;36.70;3.03;;;;;;;23.20;58.47;99545.22;7314195;19;129109;-37
2023/10/18 01:56:09;;;;;;;48.90;4.22;;;;;;;23.21;58.33;99541.59;7312031;19;130376;-36
2023/10/18 01:58:35;;;;;;;24.77;2.63;;;;;;;23.20;57.77;99534.72;7313657;19;129601;-39
2023/10/18 02:01:07;;;;;;;35.22;3.15;;;;;;;23.09;58.17;99517.41;7310947;19;128959;-37
2023/10/18 02:03:34;;;;;;;45.53;3.88;;;;;;;23.17;58.40;99530.59;7308532;19;130211;-38
2023/10/18 02:06:00;;;;;;;;;;;;;;;23.18;60.10;99534.03;7313318;19;130515;-38
2023/10/18 02:08:26;;;;;;;38.67;3.55;;;;;;;23.16;59.13;99533.34;7303064;19;129123;-38
2023/10/18 02:10:52;;;;;;;51.45;3.92;;;;;;;23.14;58.22;99519.56;7311054;19;129147;-37
2023/10/18 02:13:18;;;;;;;41.28;3.22;;;;;;;23.17;58.02;99516.66;7313161;19;130014;-37
2023/10/18 02:15:44;;;;;;;44.22;3.38;;;;;;;23.15;57.95;99510.75;7312009;19;131501;-38
2023/10/18 02:18:10;;;;;;;71.10;5.37;;;;;;;23.07;58.29;99492.31;7311598;19;128924;-37
2023/10/18 02:20:41;;;;;;;31.07;3.03;;;;;;;23.11;58.24;99514.63;7310240;19;129320;-38
2023/10/18 02:23:12;;;;;;;43.50;3.65;;;;;;;23.12;58.45;99516.28;7314143;19;130247;-38
2023/10/18 02:28:08;;;;;;;62.10;4.43;;;;;;;23.13;58.08;99512.69;7310716;19;129486;-38
2023/10/18 02:30:36;;;;;;;50.90;3.88;;;;;;;23.16;57.96;99515.00;7310886;19;128978;-38
2023/10/18 02:33:04;;;;;;;29.95;2.75;;;;;;;23.17;57.73;99506.97;7313832;19;130146;-38
2023/10/18 02:35:30;;;;;;;58.15;4.13;;;;;;;23.13;57.54;99507.44;7311199;19;130420;-37
2023/10/18 02:37:55;;;;;;;47.77;4.13;;;;;;;23.14;57.86;99498.59;7310007;19;128950;-38
2023/10/18 02:40:29;;;;;;;45.28;3.47;;;;;;;23.15;57.27;99497.63;7309427;19;128829;-38
2023/10/18 02:42:57;;;;;;;37.10;3.38;;;;;;;23.12;58.18;99503.97;7312750;19;130212;-38
2023/10/18 02:45:23;;;;;;;41.83;3.67;;;;;;;23.16;57.65;99500.09;7311712;19;130395;-38
2023/10/18 02:47:51;;;;;;;67.30;4.50;;;;;;;23.18;58.07;99497.31;7309447;19;129467;-37
2023/10/18 02:50:20;;;;;;;36.20;3.10;;;;;;;23.16;57.47;99499.25;7310085;19;129237;-38
2023/10/18 02:52:46;;;;;;;38.30;3.17;;;;;;;23.18;57.70;99499.94;7311963;19;131065;-36
2023/10/18 02:55:18;;;;;;;14.67;2.07;;;;;;;23.15;57.79;99501.06;7311159;19;129432;-37
2023/10/18 02:57:48;;;;;;;32.00;2.55;;;;;;;23.14;58.09;99496.78;7311761;19;128990;-36
2023/10/18 03:00:17;;;;;;;43.53;3.55;;;;;;;23.17;57.39;99504.34;7308814;19;128911;-38
2023/10/18 03:02:42;;;;;;;23.25;2.47;;;;;;;23.16;57.30;99505.34;7312556;19;130574;-37
2023/10/18 03:05:08;;;;;;;43.23;3.83;;;;;;;23.12;57.33;99495.31;7311245;19;130499;-37
2023/10/18 03:07:37;;;;;;;38.30;3.23;;;;;;;23.17;57.46;99487.81;7311319;19;129176;-38
2023/10/18 03:10:11;;;;;;;39.38;3.17;;;;;;;23.13;58.00;99489.09;7308135;19;129033;-36
2023/10/18 03:12:37;;;;;;;60.30;4.40;;;;;;;23.14;57.59;99488.94;7310187;19;130392;-38
2023/10/18 03:15:08;;;;;;;28.90;2.72;;;;;;;23.01;57.18;99469.31;7314855;19;130971;-38
2023/10/18 03:17:36;;;;;;;69.55;4.63;;;;;;;23.14;57.25;99475.81;7318346;19;129061;-38
2023/10/18 03:20:19;;;;;;;30.85;2.83;;;;;;;23.10;57.61;99476.28;7316979;19;128980;-38
2023/10/18 03:22:45;;;;;;;39.50;3.17;;;;;;;23.01;57.97;99456.19;7318055;19;130464;-37
2023/10/18 03:25:16;;;;;;;16.47;2.13;;;;;;;23.06;58.17;99469.69;7318180;19;129738;-38
2023/10/18 03:27:42;;;;;;;31.40;2.72;;;;;;;23.06;57.93;99465.28;7316246;19;128840;-38
2023/10/18 03:30:54;;;;;;;38.90;3.43;;;;;;;23.08;57.97;99467.75;7315667;19;128980;-38
2023/10/18 03:32:54;;;;;;;39.13;3.13;;;;;;;23.10;57.84;99466.63;7315358;19;129084;-38
2023/10/18 03:35:20;;;;;;;35.27;3.17;;;;;;;23.10;58.00;99471.03;7315653;19;131144;-37
2023/10/18 03:37:46;;;;;;;34.08;2.90;;;;;;;23.14;58.18;99474.97;7318922;19;129036;-38
2023/10/18 03:40:20;;;;;;;36.97;3.33;;;;;;;22.94;58.80;99476.97;7315821;19;129439;-37
2023/10/18 03:42:46;;;;;;;35.92;3.15;;;;;;;23.04;58.84;99475.06;7318792;19;130141;-37
2023/10/18 03:45:12;;;;;;;64.57;4.83;;;;;;;23.27;57.09;99466.75;7315102;19;131143;-37
2023/10/18 03:47:38;;;;;;;46.25;3.45;;;;;;;23.49;56.95;99467.06;7316025;19;129241;-38
2023/10/18 03:50:40;;;;;;;34.42;3.03;;;;;;;23.68;55.91;99466.88;7315840;19;129204;-37
2023/10/18 03:52:57;;;;;;;40.25;3.25;;;;;;;23.90;55.83;99471.56;7316577;19;130273;-38
2023/10/18 03:55:36;;;;;;;;;;;;;;;23.95;55.30;99457.94;7316215;19;130402;-37
2023/10/18 03:58:02;;;;;;;;;;;;;;;24.07;55.00;99462.81;7316210;19;128932;-38
2023/10/18 04:02:56;;;;;;;40.47;3.43;;;;;;;24.28;54.65;99457.94;7311197;19;129289;-38
2023/10/18 04:05:32;;;;;;;34.20;3.10;;;;;;;24.33;54.49;99442.50;7316934;19;130346;-37
2023/10/18 04:07:57;;;;;;;58.42;3.88;;;;;;;24.38;54.78;99437.59;7315627;19;129631;-38
2023/10/18 04:10:24;;;;;;;51.17;3.70;;;;;;;24.43;54.31;99437.94;7311967;19;130679;-38
2023/10/18 04:12:50;;;;;;;39.40;3.05;;;;;;;24.48;54.45;99435.66;7315944;19;130224;-38
2023/10/18 04:15:21;;;;;;;44.63;3.67;;;;;;;24.53;54.38;99439.59;7314240;19;130380;-38
2023/10/18 04:17:49;;;;;;;43.35;3.42;;;;;;;24.58;54.03;99434.69;7315462;19;129583;-37
2023/10/18 04:22:50;;;;;;;41.35;3.03;;;;;;;24.65;54.13;99435.66;7316513;19;130925;-38
2023/10/18 04:25:30;;;;;;;31.80;2.78;;;;;;;24.67;54.08;99434.53;7314643;19;130259;-38
2023/10/18 04:27:59;;;;;;;67.90;4.57;;;;;;;24.69;53.77;99434.38;7312222;19;128890;-38
2023/10/18 04:30:31;;;;;;;40.25;3.20;;;;;;;24.69;53.48;99431.75;7311442;19;130130;-36
2023/10/18 04:33:00;;;;;;;40.40;3.15;;;;;;;24.75;53.24;99423.22;7314998;19;130150;-36
2023/10/18 04:35:29;;;;;;;51.40;3.85;;;;;;;24.77;53.17;99421.25;7314412;19;130958;-36
2023/10/18 04:37:55;;;;;;;45.90;3.40;;;;;;;24.69;53.30;99408.09;7314551;19;130314;-37
2023/10/18 04:40:22;;;;;;;78.72;5.25;;;;;;;24.64;53.40;99399.84;7310996;19;129989;-36
2023/10/18 04:42:51;;;;;;;48.75;3.55;;;;;;;24.75;53.71;99420.59;7311829;19;131333;-38
2023/10/18 04:45:18;;;;;;;73.18;4.82;;;;;;;24.73;53.87;99422.53;7313113;19;130815;-38
2023/10/18 04:47:44;;;;;;;;;;;;;;;24.68;54.21;99414.31;7312833;19;129104;-37
2023/10/18 04:50:11;;;;;;;78.95;5.47;;;;;;;24.71;53.78;99408.75;7309761;19;128885;-36
2023/10/18 04:52:40;;;;;;;74.63;4.85;;;;;;;24.79;53.69;99411.38;7308950;19;130340;-36
2023/10/18 04:55:15;;;;;;;34.45;2.78;;;;;;;24.78;53.48;99409.72;7313453;19;131210;-37
2023/10/18 04:57:41;;;;;;;68.25;4.50;;;;;;;24.78;53.68;99409.72;7310213;19;130716;-37
2023/10/18 05:00:35;;;;;;;40.58;2.83;;;;;;;24.80;53.78;99413.03;7312536;19;129225;-37
2023/10/18 05:02:58;;;;;;;44.15;3.20;;;;;;;24.74;53.41;99408.44;7304143;19;130805;-36
2023/10/18 05:05:26;;;;;;;14.65;2.20;;;;;;;24.60;53.57;99406.41;7312901;19;131053;-38
2023/10/18 05:07:55;;;;;;;153.43;9.45;;;;;;;24.65;53.83;99414.63;7307913;19;128757;-37
2023/10/18 05:10:21;;;;;;;77.85;5.63;;;;;;;24.51;54.72;99418.72;7307260;19;129228;-38
2023/10/18 05:12:53;;;;;;;34.70;2.78;;;;;;;24.44;54.94;99420.38;7312865;19;130215;-38
2023/10/18 05:15:29;;;;;;;56.42;3.85;;;;;;;24.26;55.27;99414.44;7307969;19;130483;-37
2023/10/18 05:18:14;;;;;;;48.20;3.65;;;;;;;24.24;55.20;99411.13;7310705;19;130348;-38
2023/10/18 05:20:56;;;;;;;63.85;4.20;;;;;;;24.23;54.75;99409.47;7309680;19;129040;-37
2023/10/18 05:23:32;;;;;;;54.97;4.10;;;;;;;24.23;55.12;99405.06;7312090;19;130656;-38
2023/10/18 05:26:08;;;;;;;42.77;2.97;;;;;;;24.27;55.15;99400.28;7313754;19;129241;-36
2023/10/18 05:28:49;;;;;;;73.95;4.78;;;;;;;24.30;55.21;99403.44;7307182;19;129128;-36
2023/10/18 05:34:04;;;;;;;50.40;3.53;;;;;;;24.37;54.78;99400.97;7306914;19;130465;-38
2023/10/18 05:36:54;;;;;;;64.53;4.35;;;;;;;24.40;55.37;99409.34;7311429;19;130746;-37
2023/10/18 05:41:59;;;;;;;16.55;2.08;;;;;;;24.48;55.35;99410.38;7310005;19;129037;-37
2023/10/18 05:44:27;;;;;;;43.70;3.53;;;;;;;24.48;54.56;99412.00;7312153;19;130291;-37
2023/10/18 05:46:53;;;;;;;27.50;2.45;;;;;;;24.51;54.70;99407.41;7311500;19;130257;-38
2023/10/18 05:49:25;;;;;;;28.40;2.80;;;;;;;24.49;52.59;99415.44;7311729;19;129314;-38
2023/10/18 05:54:35;;;;;;;53.88;3.95;;;;;;;24.53;51.25;99426.47;7309992;19;129953;-37
2023/10/18 05:57:01;;;;;;;37.05;2.78;;;;;;;24.64;51.89;99420.88;7311251;19;129558;-38
2023/10/18 05:59:33;;;;;;;56.10;3.87;;;;;;;24.62;50.77;99423.69;7311571;19;129294;-36
2023/10/18 06:02:10;;;;;;;12.50;1.90;;;;;;;24.58;52.16;99424.97;7312524;19;130611;-38
2023/10/18 06:04:42;;;;;;;91.22;5.95;;;;;;;24.49;53.02;99416.25;7311375;19;130099;-38
2023/10/18 06:07:12;;;;;;;34.85;2.85;;;;;;;24.43;53.04;99418.72;7313116;19;130487;-38
2023/10/18 06:09:53;;;;;;;50.08;4.07;;;;;;;24.33;54.09;99424.13;7312467;19;129189;-37
2023/10/18 06:12:22;;;;;;;16.90;2.03;;;;;;;24.26;54.22;99409.97;7311291;19;129532;-37
2023/10/18 06:14:51;;;;;;;38.58;3.28;;;;;;;24.22;54.17;99413.94;7313044;19;128866;-37
2023/10/18 06:17:22;;;;;;;34.70;2.65;;;;;;;24.15;55.28;99412.91;7313901;19;130576;-38
2023/10/18 06:19:50;;;;;;;42.75;3.47;;;;;;;24.08;55.11;99416.34;7311019;19;129696;-38
2023/10/18 06:22:27;;;;;;;30.63;2.90;;;;;;;24.04;55.30;99422.91;7311634;19;129326;-38
2023/10/18 06:24:55;;;;;;;35.60;2.75;;;;;;;23.94;55.93;99420.38;7312642;19;130250;-36
2023/10/18 06:27:21;;;;;;;36.72;2.78;;;;;;;23.92;55.99;99416.25;7312914;19;130247;-38
2023/10/18 06:29:51;;;;;;;55.13;3.83;;;;;;;23.89;55.66;99412.16;7310518;19;128783;-38
2023/10/18 06:32:22;;;;;;;30.10;2.65;;;;;;;23.83;56.32;99414.59;7312759;19;129175;-38
2023/10/18 06:34:48;;;;;;;60.60;4.13;;;;;;;23.80;56.68;99407.03;7309156;19;130390;-38
2023/10/18 06:37:20;;;;;;;35.78;2.97;;;;;;;23.74;56.34;99413.72;7312951;19;129250;-37
2023/10/18 06:39:47;;;;;;;61.60;4.10;;;;;;;23.81;53.73;99412.13;7311314;19;129456;-38
2023/10/18 06:42:12;;;;;;;;;;;;;;;23.87;53.06;99414.09;7313266;19;128895;-38
2023/10/18 06:44:42;;;;;;;60.30;3.87;;;;;;;23.89;54.62;99412.16;7311186;19;130217;-37
2023/10/18 06:47:13;;;;;;;32.20;2.67;;;;;;;23.83;55.80;99412.75;7310843;19;130165;-37
2023/10/18 06:49:42;;;;;;;53.22;4.00;;;;;;;23.74;56.44;99408.47;7314995;19;129075;-37
2023/10/18 06:52:08;;;;;;;40.50;2.95;;;;;;;23.69;56.54;99400.25;7319812;19;129402;-37
2023/10/18 06:54:38;;;;;;;;;;;;;;;23.66;56.77;99400.56;7319476;19;130400;-36
2023/10/18 06:57:37;;;;;;;47.60;3.30;;;;;;;23.60;56.32;99403.81;7317399;19;130533;-37
2023/10/18 06:59:56;;;;;;;27.73;2.58;;;;;;;23.56;57.27;99397.25;7315827;19;128951;-38
2023/10/18 07:02:27;;;;;;;34.00;2.77;;;;;;;23.51;56.79;99402.16;7318760;19;128854;-37
2023/10/18 07:04:56;;;;;;;30.92;2.58;;;;;;;23.50;57.07;99397.06;7315677;19;130207;-36
2023/10/18 07:07:23;;;;;;;35.70;2.67;;;;;;;23.51;57.68;99390.81;7318087;19;131211;-37
2023/10/18 07:09:56;;;;;;;49.08;3.40;;;;;;;23.52;57.14;99387.22;7314946;19;129287;-37
2023/10/18 07:12:32;;;;;;;46.72;3.38;;;;;;;23.55;57.02;99381.66;7319437;19;130996;-38
2023/10/18 07:14:57;;;;;;;59.10;3.85;;;;;;;23.44;54.02;99368.78;7317511;19;130146;-38
2023/10/18 07:17:24;;;;;;;47.03;2.97;;;;;;;23.59;53.26;99389.06;7318502;19;130316;-36
2023/10/18 07:19:55;;;;;;;58.05;3.83;;;;;;;23.70;53.16;99385.34;7314132;19;128900;-38
2023/10/18 07:22:27;;;;;;;30.10;2.45;;;;;;;23.77;55.70;99392.41;7318677;19;128721;-37
2023/10/18 07:24:59;;;;;;;57.60;3.80;;;;;;;23.68;56.15;99393.38;7317729;19;129084;-37
2023/10/18 07:27:29;;;;;;;37.17;2.85;;;;;;;23.61;56.43;99381.84;7317136;19;131223;-39
2023/10/18 07:29:58;;;;;;;51.05;3.38;;;;;;;23.56;56.04;99378.88;7316038;19;129099;-36
2023/10/18 07:32:28;;;;;;;33.28;2.42;;;;;;;23.55;56.56;99374.59;7317541;19;129432;-38
2023/10/18 07:34:57;;;;;;;54.08;3.72;;;;;;;23.50;56.65;99371.66;7317376;19;129461;-38
2023/10/18 07:37:31;;;;;;;28.27;2.47;;;;;;;23.31;57.53;99358.75;7318201;19;129204;-37
2023/10/18 07:39:59;;;;;;;44.20;3.17;;;;;;;23.41;56.93;99363.88;7316012;19;130097;-36
2023/10/18 07:42:34;;;;;;;54.70;3.40;;;;;;;23.36;57.15;99356.47;7316890;19;129627;-37
2023/10/18 07:45:08;;;;;;;12.18;1.73;;;;;;;23.36;57.22;99355.66;7318438;19;130251;-37
2023/10/18 07:47:37;;;;;;;37.30;2.75;;;;;;;23.37;57.45;99347.63;7314746;19;131125;-37
2023/10/18 07:52:56;;;;;;;65.85;4.00;;;;;;;23.34;57.01;99336.63;7318203;19;128836;-36
2023/10/18 07:55:22;;;;;;;8.55;1.48;;;;;;;23.29;53.88;99325.78;7316057;19;131472;-38
2023/10/18 07:57:49;;;;;;;55.53;3.70;;;;;;;23.48;53.30;99334.25;7316132;19;130504;-37
2023/10/18 08:00:26;;;;;;;27.38;2.35;;;;;;;23.45;53.04;99307.50;7313284;19;130888;-36
2023/10/18 08:02:52;;;;;;;;;;;;;;;23.63;55.87;99319.53;7318466;19;131702;-35
2023/10/18 08:05:21;;;;;;;38.42;2.70;;;;;;;23.41;57.20;99295.66;7317022;19;129403;-38
2023/10/18 08:07:52;;;;;;;53.20;3.38;;;;;;;23.46;57.00;99320.44;7315226;19;131371;-37
2023/10/18 08:10:22;;;;;;;30.00;2.63;;;;;;;23.39;57.24;99314.19;7315305;19;129394;-36
2023/10/18 08:12:57;;;;;;;61.45;3.72;;;;;;;23.33;56.85;99309.56;7316709;19;128959;-37
2023/10/18 08:15:22;;;;;;;34.65;2.60;;;;;;;23.20;57.16;99286.34;7317636;19;131182;-36
2023/10/18 08:17:50;;;;;;;55.60;3.73;;;;;;;23.32;57.57;99305.28;7313235;19;130528;-35
2023/10/18 08:22:50;;;;;;;43.50;3.13;;;;;;;23.30;58.43;99320.38;7316438;19;128999;-37
2023/10/18 08:28:13;;;;;;;57.03;3.65;;;;;;;23.22;57.89;99317.69;7310960;19;130196;-36
2023/10/18 08:31:03;;;;;;;44.53;3.05;;;;;;;23.19;58.36;99317.97;7314010;19;128981;-35
2023/10/18 08:33:24;;;;;;;33.33;2.45;;;;;;;23.24;58.25;99315.72;7316292;19;129431;-36
2023/10/18 08:35:58;;;;;;;40.13;3.03;;;;;;;23.21;54.87;99310.78;7315965;19;129167;-38
2023/10/18 08:38:26;;;;;;;36.17;2.58;;;;;;;23.22;53.97;99281.78;7313906;19;130404;-37
2023/10/18 08:41:05;;;;;;;54.90;3.25;;;;;;;23.33;53.19;99283.34;7313888;19;128970;-37
2023/10/18 08:43:32;;;;;;;41.72;2.75;;;;;;;23.49;53.62;99293.88;7316490;19;129054;-36
2023/10/18 08:45:59;;;;;;;52.10;3.28;;;;;;;23.36;55.13;99276.94;7315237;19;129161;-37
2023/10/18 08:48:28;;;;;;;31.88;2.35;;;;;;;23.29;56.02;99271.50;7312904;19;130731;-37
2023/10/18 08:50:56;;;;;;;28.25;2.38;;;;;;;23.36;57.43;99290.88;7311987;19;129712;-37
2023/10/18 08:53:25;;;;;;;44.90;2.83;;;;;;;23.32;57.22;99292.16;7314345;19;129366;-36
2023/10/18 08:55:52;;;;;;;55.40;3.60;;;;;;;23.29;58.46;99297.75;7314508;19;130279;-37
2023/10/18 08:58:19;;;;;;;70.57;4.57;;;;;;;23.15;57.54;99274.72;7314647;19;130311;-37
2023/10/18 09:03:27;;;;;;;40.65;3.03;;;;;;;23.23;58.09;99283.44;7314928;19;129102;-37
2023/10/18 09:06:07;;;;;;;50.15;3.00;;;;;;;23.26;57.91;99287.53;7314237;19;131189;-37
2023/10/18 09:08:38;;;;;;;21.83;1.70;;;;;;;23.23;58.92;99287.84;7313294;19;129816;-38
2023/10/18 09:11:20;;;;;;;81.75;4.93;;;;;;;23.23;58.42;99293.94;7310482;19;130424;-36
2023/10/18 09:14:07;;;;;;;99.55;5.95;;;;;;;23.10;59.08;99258.63;7310493;19;129099;-36
2023/10/18 09:16:39;;;;;;;35.83;2.65;;;;;;;23.23;59.01;99272.94;7313875;19;130709;-37
2023/10/18 09:19:09;;;;;;;47.53;2.95;;;;;;;23.14;55.08;99279.13;7313682;19;130509;-38
2023/10/18 09:21:36;;;;;;;5.38;1.13;;;;;;;23.24;53.99;99279.81;7314830;19;128885;-38
2023/10/18 09:24:09;;;;;;;53.80;3.22;;;;;;;23.33;53.12;99280.72;7311903;19;129334;-36
2023/10/18 09:26:41;;;;;;;43.20;2.60;;;;;;;23.43;53.32;99278.78;7314275;19;129995;-38
2023/10/18 09:29:10;;;;;;;36.85;2.33;;;;;;;23.37;54.65;99278.59;7311346;19;131693;-36
2023/10/18 09:31:50;;;;;;;39.47;2.53;;;;;;;23.26;56.08;99277.03;7312411;19;129099;-37
2023/10/18 09:34:16;;;;;;;35.83;2.65;;;;;;;23.27;56.63;99278.72;7314053;19;129025;-38
2023/10/18 09:36:55;;;;;;;57.33;3.50;;;;;;;23.13;57.68;99250.44;7310936;19;129098;-38
2023/10/18 09:39:24;;;;;;;42.08;2.88;;;;;;;23.23;57.82;99274.75;7312567;19;130882;-36
2023/10/18 09:41:50;;;;;;;113.70;6.65;;;;;;;23.23;57.43;99272.13;7311616;19;129254;-37
2023/10/18 09:44:18;;;;;;;46.10;2.80;;;;;;;23.22;57.67;99275.72;7311904;19;129210;-36
2023/10/18 09:46:48;;;;;;;51.63;3.13;;;;;;;23.22;58.23;99273.91;7313246;19;130133;-37
2023/10/18 09:49:21;;;;;;;52.80;3.45;;;;;;;23.07;58.29;99248.47;7306982;19;130508;-38
2023/10/18 09:51:53;;;;;;;36.90;2.42;;;;;;;23.19;57.64;99265.53;7314616;19;128922;-37
2023/10/18 09:54:21;;;;;;;40.10;2.60;;;;;;;23.21;58.36;99263.59;7311574;19;129219;-36
2023/10/18 09:56:48;;;;;;;24.15;1.88;;;;;;;23.22;58.07;99262.63;7313239;19;130269;-37
2023/10/18 09:59:25;;;;;;;59.17;3.63;;;;;;;23.21;58.04;99253.09;7311965;19;130471;-36
2023/10/18 10:02:15;;;;;;;50.05;3.15;;;;;;;23.10;54.63;99254.22;7313838;19;129098;-37
2023/10/18 10:04:39;;;;;;;41.67;2.72;;;;;;;23.19;53.33;99257.66;7311381;19;130769;-38
2023/10/18 10:09:49;;;;;;;54.38;3.15;;;;;;;23.23;53.27;99232.78;7308489;19;128845;-36
2023/10/18 10:12:19;;;;;;;40.63;2.73;;;;;;;23.31;54.19;99250.38;7312932;19;129060;-36
2023/10/18 10:14:45;;;;;;;46.63;3.13;;;;;;;23.24;54.83;99250.16;7313368;19;129163;-38
2023/10/18 10:17:20;;;;;;;28.40;2.10;;;;;;;23.18;56.34;99243.75;7311813;19;128953;-37
2023/10/18 10:19:51;;;;;;;28.95;2.03;;;;;;;23.05;56.13;99222.41;7310942;19;130429;-36
2023/10/18 10:22:18;;;;;;;23.30;1.67;;;;;;;23.16;56.37;99247.50;7310772;19;128916;-36
2023/10/18 10:24:45;;;;;;;36.97;2.58;;;;;;;23.13;56.61;99234.69;7310055;19;129305;-37
2023/10/18 10:27:41;;;;;;;14.55;1.40;;;;;;;23.15;57.45;99248.50;7311036;19;130288;-37
2023/10/18 10:30:33;;;;;;;24.88;1.85;;;;;;;23.11;56.64;99229.63;7310501;19;130593;-36
2023/10/18 10:33:05;;;;;;;41.45;2.88;;;;;;;23.10;57.27;99229.78;7310790;19;129075;-37
2023/10/18 10:35:32;;;;;;;36.42;2.30;;;;;;;23.12;56.86;99227.81;7313224;19;130649;-38
2023/10/18 10:38:01;;;;;;;54.50;3.58;;;;;;;23.12;57.19;99219.97;7311156;19;131108;-37
2023/10/18 10:43:02;;;;;;;51.97;3.00;;;;;;;23.06;57.16;99215.34;7312936;19;128908;-37
2023/10/18 10:48:15;;;;;;;81.55;4.93;;;;;;;23.17;53.59;99220.31;7309288;19;129678;-37
2023/10/18 10:51:11;;;;;;;40.00;2.65;;;;;;;23.23;53.14;99204.75;7309980;19;129163;-37
2023/10/18 10:53:57;;;;;;;33.85;2.28;;;;;;;23.24;54.60;99216.03;7312380;19;129030;-36
2023/10/18 10:56:28;;;;;;;77.30;4.43;;;;;;;23.17;54.68;99205.38;7310268;19;129942;-37
2023/10/18 10:58:58;;;;;;;56.67;3.25;;;;;;;23.14;55.36;99195.22;7310815;19;130927;-37
2023/10/18 11:04:27;;;;;;;39.95;2.50;;;;;;;23.11;56.84;99189.47;7311669;19;129197;-37
2023/10/18 11:06:57;;;;;;;46.72;2.75;;;;;;;23.09;56.38;99191.41;7309750;19;129395;-37
2023/10/18 11:09:32;;;;;;;43.15;2.60;;;;;;;22.96;56.92;99164.81;7308035;19;129954;-38
2023/10/18 11:12:03;;;;;;;42.13;2.72;;;;;;;23.06;57.14;99170.75;7312824;19;130892;-36
2023/10/18 11:14:29;;;;;;;44.53;2.63;;;;;;;23.06;57.32;99173.38;7311444;19;129041;-36
2023/10/18 11:17:17;;;;;;;70.43;4.07;;;;;;;23.04;57.36;99172.72;7308909;19;129013;-36
2023/10/18 11:19:43;;;;;;;39.30;2.65;;;;;;;23.05;56.97;99163.88;7307586;19;130160;-36
2023/10/18 11:22:13;;;;;;;38.33;2.57;;;;;;;23.05;57.48;99158.63;7310963;19;129207;-37
2023/10/18 11:24:42;;;;;;;39.95;2.70;;;;;;;23.03;57.25;99161.41;7310958;19;130910;-36
2023/10/18 11:27:11;;;;;;;55.53;3.70;;;;;;;23.04;57.70;99152.56;7310067;19;129039;-38
2023/10/18 11:29:40;;;;;;;37.00;2.42;;;;;;;22.94;54.51;99145.84;7307599;19;129155;-38
2023/10/18 11:32:07;;;;;;;43.58;3.03;;;;;;;23.05;53.86;99137.66;7310568;19;130443;-37
2023/10/18 11:34:38;;;;;;;30.73;2.05;;;;;;;23.15;53.39;99138.34;7311410;19;129046;-37
2023/10/18 11:37:08;;;;;;;61.53;3.50;;;;;;;23.26;53.51;99130.16;7316017;19;129228;-37
2023/10/18 11:39:33;;;;;;;27.90;2.03;;;;;;;23.20;54.57;99138.69;7316267;19;131402;-37
2023/10/18 11:41:59;;;;;;;47.13;3.13;;;;;;;23.12;55.13;99128.19;7317043;19;130359;-37
2023/10/18 11:44:28;;;;;;;71.35;4.43;;;;;;;23.10;55.95;99124.88;7316259;19;130458;-37
2023/10/18 11:47:00;;;;;;;43.20;2.67;;;;;;;23.07;56.45;99125.22;7317851;19;129375;-37
2023/10/18 11:49:42;;;;;;;38.40;2.35;;;;;;;23.05;57.23;99127.16;7314541;19;130225;-38
2023/10/18 11:52:21;;;;;;;59.75;3.58;;;;;;;23.02;57.58;99117.00;7314966;19;129510;-37
2023/10/18 11:54:51;;;;;;;45.53;2.83;;;;;;;23.01;57.00;99113.56;7316350;19;128855;-37
2023/10/18 11:57:46;;;;;;;35.50;2.25;;;;;;;23.01;57.92;99108.31;7316758;19;129207;-36
2023/10/18 12:02:51;;;;;;;53.40;3.00;;;;;;;22.99;56.74;99106.84;7315766;19;129317;-37
2023/10/18 12:05:23;;;;;;;19.10;1.58;;;;;;;22.98;56.98;99098.16;7316391;19;130322;-37
2023/10/18 12:07:49;;;;;;;34.13;2.13;;;;;;;22.97;57.44;99098.31;7317666;19;129011;-37
2023/10/18 12:10:17;;;;;;;32.70;2.10;;;;;;;22.97;56.94;99090.44;7314562;19;129080;-37
2023/10/18 12:12:43;;;;;;;38.38;2.33;;;;;;;22.83;57.01;99059.59;7316762;19;130423;-37
2023/10/18 12:15:09;;;;;;;58.65;3.53;;;;;;;22.88;55.33;99087.00;7313293;19;129366;-38
2023/10/18 12:17:34;;;;;;;34.80;2.20;;;;;;;23.02;53.90;99075.06;7316683;19;130969;-37
2023/10/18 12:20:00;;;;;;;48.17;2.97;;;;;;;23.06;53.49;99079.81;7314613;19;129331;-36